createdAt,value
2019-05-22T00:00:13.532Z,1009.90
2019-05-22T00:01:13.478Z,1009.98
2019-05-22T00:02:13.547Z,1009.97
2019-05-22T00:03:13.463Z,1009.94
2019-05-22T00:04:13.464Z,1009.99
2019-05-22T00:05:13.439Z,1010.04
2019-05-22T00:06:13.477Z,1010.05
2019-05-22T00:07:13.411Z,1009.97
2019-05-22T00:08:13.520Z,1010.00
2019-05-22T00:09:13.396Z,1010.04
2019-05-22T00:10:13.401Z,1010.01
2019-05-22T00:11:13.363Z,1009.98
2019-05-22T00:12:13.414Z,1010.03
2019-05-22T00:13:13.372Z,1010.02
2019-05-22T00:14:14.353Z,1010.03
2019-05-22T00:15:13.319Z,1010.01
2019-05-22T00:16:14.363Z,1009.96
2019-05-22T00:17:13.297Z,1009.95
2019-05-22T00:18:14.377Z,1010.00
2019-05-22T00:19:13.295Z,1009.96
2019-05-22T00:20:14.287Z,1009.97
2019-05-22T00:21:13.253Z,1009.99
2019-05-22T00:22:13.277Z,1009.98
2019-05-22T00:23:13.232Z,1010.04
2019-05-22T00:24:13.320Z,1010.08
2019-05-22T00:25:13.210Z,1010.12
2019-05-22T00:26:13.310Z,1010.11
2019-05-22T00:27:13.189Z,1010.19
2019-05-22T00:28:13.215Z,1010.15
2019-05-22T00:29:13.183Z,1010.20
2019-05-22T00:30:13.231Z,1010.18
2019-05-22T00:31:13.148Z,1010.15
2019-05-22T00:32:13.248Z,1010.15
2019-05-22T00:33:13.124Z,1010.14
2019-05-22T00:34:13.179Z,1010.26
2019-05-22T00:35:13.115Z,1010.16
2019-05-22T00:36:13.167Z,1010.21
2019-05-22T00:37:13.085Z,1010.20
2019-05-22T00:38:13.189Z,1010.22
2019-05-22T00:39:13.073Z,1010.25
2019-05-22T00:40:13.092Z,1010.21
2019-05-22T00:41:13.037Z,1010.27
2019-05-22T00:42:13.107Z,1010.28
2019-05-22T00:43:14.177Z,1010.28
2019-05-22T00:44:13.049Z,1010.26
2019-05-22T00:45:12.998Z,1010.25
2019-05-22T00:46:13.041Z,1010.30
2019-05-22T00:47:12.981Z,1010.23
2019-05-22T00:48:13.048Z,1010.23
2019-05-22T00:49:13.012Z,1010.23
2019-05-22T00:50:13.075Z,1010.29
2019-05-22T00:51:12.928Z,1010.31
2019-05-22T00:52:12.979Z,1010.25
2019-05-22T00:53:12.910Z,1010.27
2019-05-22T00:54:13.014Z,1010.27
2019-05-22T00:55:12.888Z,1010.33
2019-05-22T00:56:12.894Z,1010.35
2019-05-22T00:57:12.864Z,1010.32
2019-05-22T00:58:12.907Z,1010.34
2019-05-22T00:59:12.859Z,1010.33
2019-05-22T01:00:13.951Z,1010.36
2019-05-22T01:01:12.827Z,1010.33
2019-05-22T01:02:12.832Z,1010.33
2019-05-22T01:03:12.802Z,1010.32
2019-05-22T01:04:15.850Z,1010.36
2019-05-22T01:05:12.781Z,1010.36
2019-05-22T01:06:14.804Z,1010.38
2019-05-22T01:07:12.769Z,1010.43
2019-05-22T01:08:12.774Z,1010.36
2019-05-22T01:09:12.750Z,1010.41
2019-05-22T01:10:12.788Z,1010.39
2019-05-22T01:11:12.714Z,1010.34
2019-05-22T01:12:12.799Z,1010.35
2019-05-22T01:13:12.691Z,1010.41
2019-05-22T01:14:12.739Z,1010.45
2019-05-22T01:15:12.672Z,1010.46
2019-05-22T01:16:12.722Z,1010.44
2019-05-22T01:17:12.649Z,1010.48
2019-05-22T01:18:12.739Z,1010.49
2019-05-22T01:19:12.627Z,1010.47
2019-05-22T01:20:12.675Z,1010.48
2019-05-22T01:21:12.605Z,1010.48
2019-05-22T01:22:12.662Z,1010.52
2019-05-22T01:23:12.588Z,1010.51
2019-05-22T01:24:12.681Z,1010.56
2019-05-22T01:25:12.578Z,1010.55
2019-05-22T01:26:12.586Z,1010.55
2019-05-22T01:27:12.541Z,1010.48
2019-05-22T01:28:12.684Z,1010.51
2019-05-22T01:29:12.518Z,1010.53
2019-05-22T01:30:12.551Z,1010.53
2019-05-22T01:31:12.498Z,1010.54
2019-05-22T01:32:12.529Z,1010.55
2019-05-22T01:33:12.473Z,1010.52
2019-05-22T01:34:12.542Z,1010.55
2019-05-22T01:35:12.466Z,1010.52
2019-05-22T01:36:12.555Z,1010.54
2019-05-22T01:37:12.449Z,1010.51
2019-05-22T01:38:12.537Z,1010.53
2019-05-22T01:39:12.408Z,1010.52
2019-05-22T01:40:12.508Z,1010.50
2019-05-22T01:41:12.388Z,1010.57
2019-05-22T01:42:12.392Z,1010.54
2019-05-22T01:43:12.373Z,1010.48
2019-05-22T01:44:12.407Z,1010.54
2019-05-22T01:45:12.355Z,1010.55
2019-05-22T01:46:12.425Z,1010.52
2019-05-22T01:47:12.323Z,1010.60
2019-05-22T01:48:12.334Z,1010.52
2019-05-22T01:49:12.298Z,1010.58
2019-05-22T01:50:12.376Z,1010.58
2019-05-22T01:51:12.279Z,1010.54
2019-05-22T01:52:12.357Z,1010.54
2019-05-22T01:53:12.281Z,1010.49
2019-05-22T01:54:12.265Z,1010.57
2019-05-22T01:55:12.292Z,1010.56
2019-05-22T01:56:12.290Z,1010.59
2019-05-22T01:57:12.212Z,1010.60
2019-05-22T01:58:12.300Z,1010.55
2019-05-22T01:59:12.200Z,1010.60
2019-05-22T02:00:12.210Z,1010.58
2019-05-22T02:01:12.191Z,1010.60
2019-05-22T02:02:12.221Z,1010.62
2019-05-22T02:03:12.145Z,1010.60
2019-05-22T02:04:14.831Z,1010.64
2019-05-22T02:05:12.127Z,1010.62
2019-05-22T02:06:12.172Z,1010.63
2019-05-22T02:07:12.101Z,1010.59
2019-05-22T02:08:12.158Z,1010.59
2019-05-22T02:09:12.081Z,1010.57
2019-05-22T02:10:12.185Z,1010.54
2019-05-22T02:11:12.083Z,1010.58
2019-05-22T02:12:12.090Z,1010.55
2019-05-22T02:13:12.037Z,1010.67
2019-05-22T02:14:12.096Z,1010.60
2019-05-22T02:15:12.017Z,1010.64
2019-05-22T02:16:12.036Z,1010.54
2019-05-22T02:17:11.998Z,1010.66
2019-05-22T02:18:12.026Z,1010.58
2019-05-22T02:19:11.972Z,1010.61
2019-05-22T02:20:12.035Z,1010.62
2019-05-22T02:21:11.998Z,1010.59
2019-05-22T02:22:12.065Z,1010.57
2019-05-22T02:23:11.931Z,1010.60
2019-05-22T02:24:11.963Z,1010.62
2019-05-22T02:25:12.398Z,1010.63
2019-05-22T02:26:12.003Z,1010.67
2019-05-22T02:27:11.885Z,1010.65
2019-05-22T02:28:11.989Z,1010.67
2019-05-22T02:29:11.870Z,1010.77
2019-05-22T02:30:11.916Z,1010.66
2019-05-22T02:31:11.858Z,1010.68
2019-05-22T02:32:34.978Z,1010.71
2019-05-22T02:33:11.824Z,1010.72
2019-05-22T02:34:11.927Z,1010.74
2019-05-22T02:35:11.801Z,1010.69
2019-05-22T02:36:11.868Z,1010.71
2019-05-22T02:37:11.777Z,1010.69
2019-05-22T02:38:13.803Z,1010.73
2019-05-22T02:39:11.764Z,1010.73
2019-05-22T02:40:11.764Z,1010.67
2019-05-22T02:41:14.277Z,1010.72
2019-05-22T02:42:11.804Z,1010.72
2019-05-22T02:43:11.721Z,1010.82
2019-05-22T02:44:11.851Z,1010.76
2019-05-22T02:45:11.695Z,1010.77
2019-05-22T02:46:11.746Z,1010.75
2019-05-22T02:47:19.917Z,1010.73
2019-05-22T02:48:12.656Z,1010.78
2019-05-22T02:49:11.728Z,1010.77
2019-05-22T02:50:11.637Z,1010.86
2019-05-22T02:51:11.871Z,1010.81
2019-05-22T02:52:11.634Z,1010.82
2019-05-22T02:53:11.658Z,1010.74
2019-05-22T02:54:11.602Z,1010.76
2019-05-22T02:55:11.669Z,1010.77
2019-05-22T02:56:11.601Z,1010.80
2019-05-22T02:57:11.604Z,1010.82
2019-05-22T02:58:11.549Z,1010.86
2019-05-22T02:59:11.590Z,1010.86
2019-05-22T03:00:11.532Z,1010.83
2019-05-22T03:01:11.605Z,1010.92
2019-05-22T03:02:11.522Z,1010.84
2019-05-22T03:03:11.515Z,1010.88
2019-05-22T03:04:11.485Z,1010.88
2019-05-22T03:05:11.482Z,1010.86
2019-05-22T03:06:11.474Z,1010.87
2019-05-22T03:07:11.569Z,1010.85
2019-05-22T03:08:11.449Z,1010.86
2019-05-22T03:09:11.455Z,1010.93
2019-05-22T03:10:11.430Z,1010.94
2019-05-22T03:11:11.467Z,1010.92
2019-05-22T03:12:11.414Z,1010.94
2019-05-22T03:13:11.480Z,1010.93
2019-05-22T03:14:11.410Z,1010.95
2019-05-22T03:15:11.489Z,1010.97
2019-05-22T03:16:11.352Z,1010.98
2019-05-22T03:17:11.431Z,1010.94
2019-05-22T03:18:11.330Z,1010.92
2019-05-22T03:19:11.419Z,1010.97
2019-05-22T03:20:11.331Z,1010.96
2019-05-22T03:21:11.333Z,1010.98
2019-05-22T03:22:11.299Z,1010.90
2019-05-22T03:23:11.372Z,1011.06
2019-05-22T03:24:11.266Z,1011.04
2019-05-22T03:25:11.361Z,1011.01
2019-05-22T03:26:11.301Z,1011.10
2019-05-22T03:27:11.303Z,1011.10
2019-05-22T03:28:11.221Z,1011.12
2019-05-22T03:29:11.287Z,1011.14
2019-05-22T03:30:11.203Z,1011.11
2019-05-22T03:31:11.423Z,1011.15
2019-05-22T03:32:11.205Z,1011.15
2019-05-22T03:33:11.221Z,1011.16
2019-05-22T03:34:11.155Z,1011.18
2019-05-22T03:35:11.227Z,1011.19
2019-05-22T03:36:11.134Z,1011.16
2019-05-22T03:37:11.269Z,1011.21
2019-05-22T03:38:11.111Z,1011.18
2019-05-22T03:39:11.156Z,1011.22
2019-05-22T03:40:11.090Z,1011.23
2019-05-22T03:41:11.165Z,1011.20
2019-05-22T03:42:11.077Z,1011.27
2019-05-22T03:43:11.106Z,1011.23
2019-05-22T03:44:11.051Z,1011.22
2019-05-22T03:45:11.093Z,1011.26
2019-05-22T03:46:11.025Z,1011.26
2019-05-22T03:47:11.098Z,1011.32
2019-05-22T03:48:11.018Z,1011.25
2019-05-22T03:49:28.131Z,1011.25
2019-05-22T03:50:11.993Z,1011.32
2019-05-22T03:51:11.113Z,1011.28
2019-05-22T03:52:10.963Z,1011.31
2019-05-22T03:53:11.063Z,1011.31
2019-05-22T03:54:10.949Z,1011.28
2019-05-22T03:55:10.948Z,1011.29
2019-05-22T03:56:10.915Z,1011.32
2019-05-22T03:57:10.965Z,1011.32
2019-05-22T03:58:10.917Z,1011.33
2019-05-22T03:59:10.975Z,1011.30
2019-05-22T04:00:10.887Z,1011.26
2019-05-22T04:01:10.889Z,1011.20
2019-05-22T04:02:10.855Z,1011.33
2019-05-22T04:03:16.357Z,1011.35
2019-05-22T04:04:10.829Z,1011.39
2019-05-22T04:05:11.835Z,1011.34
2019-05-22T04:06:10.817Z,1011.35
2019-05-22T04:07:10.840Z,1011.33
2019-05-22T04:08:10.815Z,1011.36
2019-05-22T04:09:10.852Z,1011.31
2019-05-22T04:10:10.762Z,1011.36
2019-05-22T04:11:11.783Z,1011.33
2019-05-22T04:12:10.740Z,1011.34
2019-05-22T04:13:10.805Z,1011.35
2019-05-22T04:14:10.719Z,1011.39
2019-05-22T04:15:10.822Z,1011.38
2019-05-22T04:16:10.730Z,1011.37
2019-05-22T04:17:10.794Z,1011.38
2019-05-22T04:18:11.090Z,1011.37
2019-05-22T04:19:10.706Z,1011.39
2019-05-22T04:20:10.655Z,1011.41
2019-05-22T04:21:10.717Z,1011.36
2019-05-22T04:22:10.637Z,1011.41
2019-05-22T04:23:10.666Z,1011.45
2019-05-22T04:24:10.612Z,1011.46
2019-05-22T04:25:10.646Z,1011.47
2019-05-22T04:26:10.624Z,1011.52
2019-05-22T04:27:10.671Z,1011.53
2019-05-22T04:28:10.583Z,1011.56
2019-05-22T04:29:10.672Z,1011.55
2019-05-22T04:30:10.551Z,1011.49
2019-05-22T04:31:10.590Z,1011.55
2019-05-22T04:32:10.526Z,1011.51
2019-05-22T04:33:10.624Z,1011.57
2019-05-22T04:34:10.522Z,1011.60
2019-05-22T04:35:10.624Z,1011.61
2019-05-22T04:36:10.626Z,1011.56
2019-05-22T04:37:10.520Z,1011.57
2019-05-22T04:38:10.475Z,1011.57
2019-05-22T04:39:10.559Z,1011.62
2019-05-22T04:40:10.446Z,1011.63
2019-05-22T04:41:10.447Z,1011.59
2019-05-22T04:42:10.422Z,1011.64
2019-05-22T04:43:10.462Z,1011.60
2019-05-22T04:44:10.411Z,1011.69
2019-05-22T04:45:10.478Z,1011.65
2019-05-22T04:46:10.382Z,1011.73
2019-05-22T04:47:10.388Z,1011.69
2019-05-22T04:48:10.371Z,1011.69
2019-05-22T04:49:11.449Z,1011.69
2019-05-22T04:50:10.348Z,1011.63
2019-05-22T04:51:11.435Z,1011.74
2019-05-22T04:52:10.324Z,1011.72
2019-05-22T04:53:10.326Z,1011.71
2019-05-22T04:54:10.306Z,1011.73
2019-05-22T04:55:10.342Z,1011.75
2019-05-22T04:56:10.269Z,1011.75
2019-05-22T04:57:10.349Z,1011.74
2019-05-22T04:58:10.250Z,1011.84
2019-05-22T04:59:10.291Z,1011.81
2019-05-22T05:00:10.236Z,1011.77
2019-05-22T05:01:10.321Z,1011.78
2019-05-22T05:02:10.208Z,1011.80
2019-05-22T05:03:10.298Z,1011.86
2019-05-22T05:04:10.212Z,1011.81
2019-05-22T05:05:10.208Z,1011.74
2019-05-22T05:06:10.186Z,1011.82
2019-05-22T05:07:10.212Z,1011.86
2019-05-22T05:08:10.145Z,1011.87
2019-05-22T05:09:10.255Z,1011.85
2019-05-22T05:10:10.123Z,1011.86
2019-05-22T05:11:10.148Z,1011.84
2019-05-22T05:12:10.096Z,1011.84
2019-05-22T05:13:10.182Z,1011.89
2019-05-22T05:14:10.487Z,1011.89
2019-05-22T05:15:10.167Z,1011.89
2019-05-22T05:16:10.051Z,1011.91
2019-05-22T05:17:10.079Z,1011.89
2019-05-22T05:18:10.028Z,1011.94
2019-05-22T05:19:10.127Z,1011.92
2019-05-22T05:20:21.697Z,1011.92
2019-05-22T05:21:11.013Z,1011.94
2019-05-22T05:22:10.036Z,1011.94
2019-05-22T05:23:09.975Z,1011.90
2019-05-22T05:24:10.051Z,1011.87
2019-05-22T05:25:09.957Z,1011.95
2019-05-22T05:26:10.041Z,1011.89
2019-05-22T05:27:09.932Z,1011.97
2019-05-22T05:28:09.944Z,1011.99
2019-05-22T05:29:09.925Z,1011.99
2019-05-22T05:30:09.979Z,1011.97
2019-05-22T05:31:09.893Z,1011.97
2019-05-22T05:32:09.977Z,1011.91
2019-05-22T05:33:09.867Z,1011.96
2019-05-22T05:34:16.896Z,1012.04
2019-05-22T05:35:09.857Z,1012.06
2019-05-22T05:36:17.826Z,1012.05
2019-05-22T05:37:09.826Z,1012.06
2019-05-22T05:38:09.831Z,1012.10
2019-05-22T05:39:09.801Z,1012.04
2019-05-22T05:40:09.860Z,1012.10
2019-05-22T05:41:09.845Z,1012.12
2019-05-22T05:42:09.838Z,1012.17
2019-05-22T05:43:09.764Z,1012.13
2019-05-22T05:44:09.852Z,1012.14
2019-05-22T05:45:13.226Z,1012.16
2019-05-22T05:46:09.763Z,1012.25
2019-05-22T05:47:09.719Z,1012.24
2019-05-22T05:48:09.777Z,1012.26
2019-05-22T05:49:09.722Z,1012.18
2019-05-22T05:50:09.723Z,1012.27
2019-05-22T05:51:09.671Z,1012.22
2019-05-22T05:52:09.703Z,1012.25
2019-05-22T05:53:09.668Z,1012.29
2019-05-22T05:54:09.716Z,1012.31
2019-05-22T05:55:09.643Z,1012.28
2019-05-22T05:56:09.725Z,1012.32
2019-05-22T05:57:09.606Z,1012.33
2019-05-22T05:58:09.642Z,1012.38
2019-05-22T05:59:09.585Z,1012.33
2019-05-22T06:00:09.684Z,1012.37
2019-05-22T06:01:09.619Z,1012.40
2019-05-22T06:02:09.668Z,1012.43
2019-05-22T06:03:09.542Z,1012.39
2019-05-22T06:04:09.575Z,1012.37
2019-05-22T06:05:09.535Z,1012.33
2019-05-22T06:06:09.591Z,1012.38
2019-05-22T06:07:09.509Z,1012.39
2019-05-22T06:08:09.514Z,1012.42
2019-05-22T06:09:09.477Z,1012.42
2019-05-22T06:10:09.551Z,1012.39
2019-05-22T06:11:09.461Z,1012.44
2019-05-22T06:12:09.528Z,1012.47
2019-05-22T06:13:09.440Z,1012.47
2019-05-22T06:14:09.447Z,1012.41
2019-05-22T06:15:09.427Z,1012.48
2019-05-22T06:16:09.452Z,1012.52
2019-05-22T06:17:09.391Z,1012.48
2019-05-22T06:18:09.466Z,1012.52
2019-05-22T06:19:09.369Z,1012.56
2019-05-22T06:20:11.459Z,1012.61
2019-05-22T06:21:09.347Z,1012.51
2019-05-22T06:22:10.425Z,1012.57
2019-05-22T06:23:09.330Z,1012.61
2019-05-22T06:24:09.415Z,1012.56
2019-05-22T06:25:09.397Z,1012.56
2019-05-22T06:26:09.360Z,1012.58
2019-05-22T06:27:09.285Z,1012.58
2019-05-22T06:28:09.336Z,1012.53
2019-05-22T06:29:09.274Z,1012.60
2019-05-22T06:30:09.351Z,1012.64
2019-05-22T06:31:09.259Z,1012.67
2019-05-22T06:32:09.262Z,1012.63
2019-05-22T06:33:09.220Z,1012.64
2019-05-22T06:34:09.269Z,1012.71
2019-05-22T06:35:09.198Z,1012.68
2019-05-22T06:36:09.314Z,1012.76
2019-05-22T06:37:09.177Z,1012.77
2019-05-22T06:38:09.196Z,1012.77
2019-05-22T06:39:09.158Z,1012.78
2019-05-22T06:40:09.207Z,1012.75
2019-05-22T06:41:09.155Z,1012.81
2019-05-22T06:42:09.225Z,1012.72
2019-05-22T06:43:09.113Z,1012.69
2019-05-22T06:44:09.133Z,1012.82
2019-05-22T06:45:09.093Z,1012.75
2019-05-22T06:46:09.185Z,1012.74
2019-05-22T06:47:09.077Z,1012.76
2019-05-22T06:48:09.164Z,1012.77
2019-05-22T06:49:09.048Z,1012.77
2019-05-22T06:50:09.075Z,1012.81
2019-05-22T06:51:19.177Z,1012.79
2019-05-22T06:52:10.018Z,1012.83
2019-05-22T06:53:10.267Z,1012.85
2019-05-22T06:54:08.994Z,1012.92
2019-05-22T06:55:09.012Z,1012.91
2019-05-22T06:56:08.986Z,1012.86
2019-05-22T06:57:09.020Z,1012.87
2019-05-22T06:58:08.950Z,1012.87
2019-05-22T06:59:09.037Z,1012.90
2019-05-22T07:00:14.266Z,1012.89
2019-05-22T07:01:09.999Z,1012.92
2019-05-22T07:02:08.911Z,1012.88
2019-05-22T07:03:08.958Z,1012.92
2019-05-22T07:04:08.886Z,1012.89
2019-05-22T07:05:08.970Z,1012.92
2019-05-22T07:06:08.882Z,1012.93
2019-05-22T07:07:11.746Z,1012.94
2019-05-22T07:08:08.847Z,1012.90
2019-05-22T07:09:17.910Z,1012.91
2019-05-22T07:10:08.821Z,1012.94
2019-05-22T07:11:08.841Z,1012.94
2019-05-22T07:12:08.802Z,1012.83
2019-05-22T07:13:08.820Z,1012.96
2019-05-22T07:14:08.778Z,1012.95
2019-05-22T07:15:08.834Z,1012.98
2019-05-22T07:16:08.785Z,1012.92
2019-05-22T07:17:08.849Z,1013.00
2019-05-22T07:18:12.422Z,1012.99
2019-05-22T07:19:08.778Z,1012.96
2019-05-22T07:20:08.803Z,1013.00
2019-05-22T07:21:08.772Z,1012.98
2019-05-22T07:22:08.715Z,1013.03
2019-05-22T07:23:08.789Z,1013.01
2019-05-22T07:24:08.676Z,1012.99
2019-05-22T07:25:08.708Z,1013.02
2019-05-22T07:26:08.653Z,1012.99
2019-05-22T07:27:08.746Z,1012.99
2019-05-22T07:28:08.631Z,1012.99
2019-05-22T07:29:08.724Z,1013.01
2019-05-22T07:30:08.614Z,1013.01
2019-05-22T07:31:08.648Z,1012.98
2019-05-22T07:32:08.606Z,1013.03
2019-05-22T07:33:08.662Z,1013.02
2019-05-22T07:34:08.569Z,1013.10
2019-05-22T07:35:08.663Z,1013.07
2019-05-22T07:36:12.190Z,1013.10
2019-05-22T07:37:09.633Z,1013.10
2019-05-22T07:38:08.532Z,1013.14
2019-05-22T07:39:08.589Z,1013.15
2019-05-22T07:40:08.508Z,1013.17
2019-05-22T07:41:08.603Z,1013.18
2019-05-22T07:42:08.496Z,1013.13
2019-05-22T07:43:08.514Z,1013.16
2019-05-22T07:44:08.460Z,1013.18
2019-05-22T07:45:08.527Z,1013.19
2019-05-22T07:46:08.450Z,1013.14
2019-05-22T07:47:08.472Z,1013.13
2019-05-22T07:48:08.448Z,1013.17
2019-05-22T07:49:08.465Z,1013.17
2019-05-22T07:50:08.647Z,1013.20
2019-05-22T07:51:08.477Z,1013.23
2019-05-22T07:52:08.378Z,1013.22
2019-05-22T07:53:23.876Z,1013.26
2019-05-22T07:54:08.356Z,1013.12
2019-05-22T07:55:08.401Z,1013.25
2019-05-22T07:56:08.338Z,1013.26
2019-05-22T07:57:10.360Z,1013.31
2019-05-22T07:58:08.331Z,1013.28
2019-05-22T07:59:08.330Z,1013.25
2019-05-22T08:00:08.289Z,1013.25
2019-05-22T08:01:08.332Z,1013.28
2019-05-22T08:02:08.260Z,1013.31
2019-05-22T08:03:08.377Z,1013.26
2019-05-22T08:04:08.242Z,1013.24
2019-05-22T08:05:08.256Z,1013.26
2019-05-22T08:06:08.245Z,1013.35
2019-05-22T08:07:08.270Z,1013.28
2019-05-22T08:08:08.207Z,1013.25
2019-05-22T08:09:08.190Z,1013.33
2019-05-22T08:10:08.171Z,1013.33
2019-05-22T08:11:08.204Z,1013.33
2019-05-22T08:12:08.150Z,1013.34
2019-05-22T08:13:08.247Z,1013.34
2019-05-22T08:14:08.127Z,1013.23
2019-05-22T08:15:08.222Z,1013.33
2019-05-22T08:16:08.103Z,1013.32
2019-05-22T08:17:08.133Z,1013.28
2019-05-22T08:18:08.094Z,1013.35
2019-05-22T08:19:08.148Z,1013.38
2019-05-22T08:20:08.067Z,1013.37
2019-05-22T08:21:08.058Z,1013.34
2019-05-22T08:22:08.217Z,1013.34
2019-05-22T08:23:08.105Z,1013.39
2019-05-22T08:24:08.035Z,1013.42
2019-05-22T08:25:08.088Z,1013.41
2019-05-22T08:26:07.989Z,1013.36
2019-05-22T08:27:08.003Z,1013.40
2019-05-22T08:28:07.985Z,1013.41
2019-05-22T08:29:08.012Z,1013.42
2019-05-22T08:30:07.945Z,1013.43
2019-05-22T08:31:08.025Z,1013.47
2019-05-22T08:32:07.933Z,1013.46
2019-05-22T08:33:07.976Z,1013.52
2019-05-22T08:34:07.913Z,1013.45
2019-05-22T08:35:07.949Z,1013.51
2019-05-22T08:36:07.893Z,1013.52
2019-05-22T08:37:07.965Z,1013.58
2019-05-22T08:38:07.859Z,1013.60
2019-05-22T08:39:11.388Z,1013.55
2019-05-22T08:40:07.854Z,1013.57
2019-05-22T08:41:23.352Z,1013.59
2019-05-22T08:42:07.817Z,1013.57
2019-05-22T08:43:08.823Z,1013.58
2019-05-22T08:44:17.210Z,1013.61
2019-05-22T08:45:08.779Z,1013.53
2019-05-22T08:46:07.820Z,1013.65
2019-05-22T08:47:07.759Z,1013.58
2019-05-22T08:48:07.835Z,1013.60
2019-05-22T08:49:07.764Z,1013.57
2019-05-22T08:50:07.732Z,1013.61
2019-05-22T08:51:07.724Z,1013.63
2019-05-22T08:52:22.488Z,1013.62
2019-05-22T08:53:08.698Z,1013.63
2019-05-22T08:54:07.806Z,1013.66
2019-05-22T08:55:07.670Z,1013.64
2019-05-22T08:56:07.684Z,1013.65
2019-05-22T08:57:07.654Z,1013.62
2019-05-22T08:58:07.710Z,1013.63
2019-05-22T08:59:19.080Z,1013.68
2019-05-22T09:00:08.630Z,1013.68
2019-05-22T09:01:07.718Z,1013.69
2019-05-22T09:02:07.596Z,1013.70
2019-05-22T09:03:07.629Z,1013.66
2019-05-22T09:04:07.589Z,1013.67
2019-05-22T09:05:07.642Z,1013.71
2019-05-22T09:06:07.560Z,1013.71
2019-05-22T09:07:07.555Z,1013.70
2019-05-22T09:08:07.541Z,1013.70
2019-05-22T09:09:07.599Z,1013.69
2019-05-22T09:10:07.506Z,1013.67
2019-05-22T09:11:07.587Z,1013.72
2019-05-22T09:12:07.486Z,1013.74
2019-05-22T09:13:07.493Z,1013.69
2019-05-22T09:14:07.477Z,1013.73
2019-05-22T09:15:07.507Z,1013.69
2019-05-22T09:16:07.441Z,1013.75
2019-05-22T09:17:07.561Z,1013.74
2019-05-22T09:18:07.422Z,1013.73
2019-05-22T09:19:07.523Z,1013.76
2019-05-22T09:20:07.415Z,1013.76
2019-05-22T09:21:07.446Z,1013.74
2019-05-22T09:22:07.376Z,1013.72
2019-05-22T09:23:08.483Z,1013.70
2019-05-22T09:24:07.379Z,1013.81
2019-05-22T09:25:14.449Z,1013.74
2019-05-22T09:26:07.332Z,1013.77
2019-05-22T09:27:14.860Z,1013.78
2019-05-22T09:28:07.315Z,1013.73
2019-05-22T09:29:07.327Z,1013.77
2019-05-22T09:30:07.289Z,1013.78
2019-05-22T09:31:07.309Z,1013.75
2019-05-22T09:32:07.323Z,1013.86
2019-05-22T09:33:07.323Z,1013.86
2019-05-22T09:34:07.263Z,1013.88
2019-05-22T09:35:07.382Z,1013.86
2019-05-22T09:36:07.223Z,1013.87
2019-05-22T09:37:07.250Z,1013.86
2019-05-22T09:38:07.202Z,1013.88
2019-05-22T09:39:07.292Z,1013.92
2019-05-22T09:40:07.197Z,1013.87
2019-05-22T09:41:07.309Z,1013.93
2019-05-22T09:42:07.162Z,1013.89
2019-05-22T09:43:07.189Z,1013.91
2019-05-22T09:44:07.139Z,1013.85
2019-05-22T09:45:07.236Z,1013.84
2019-05-22T09:46:07.115Z,1013.82
2019-05-22T09:47:07.218Z,1013.92
2019-05-22T09:48:07.091Z,1013.94
2019-05-22T09:49:07.133Z,1013.89
2019-05-22T09:50:07.096Z,1013.90
2019-05-22T09:51:07.140Z,1013.95
2019-05-22T09:52:07.048Z,1013.90
2019-05-22T09:53:07.060Z,1013.92
2019-05-22T09:54:07.029Z,1013.88
2019-05-22T09:55:07.098Z,1013.86
2019-05-22T09:56:07.100Z,1013.87
2019-05-22T09:57:07.086Z,1013.96
2019-05-22T09:58:06.988Z,1013.94
2019-05-22T09:59:06.993Z,1013.99
2019-05-22T10:00:07.095Z,1014.01
2019-05-22T10:01:07.017Z,1014.04
2019-05-22T10:02:06.937Z,1013.90
2019-05-22T10:03:07.027Z,1013.91
2019-05-22T10:04:06.916Z,1013.98
2019-05-22T10:05:06.970Z,1013.98
2019-05-22T10:06:06.995Z,1013.98
2019-05-22T10:07:09.003Z,1013.99
2019-05-22T10:08:06.877Z,1013.98
2019-05-22T10:09:15.878Z,1013.95
2019-05-22T10:10:06.892Z,1013.96
2019-05-22T10:11:06.883Z,1013.94
2019-05-22T10:12:06.828Z,1013.96
2019-05-22T10:13:13.435Z,1014.02
2019-05-22T10:14:06.810Z,1013.95
2019-05-22T10:15:06.975Z,1014.00
2019-05-22T10:16:06.793Z,1014.01
2019-05-22T10:17:06.807Z,1014.01
2019-05-22T10:18:06.761Z,1014.06
2019-05-22T10:19:06.819Z,1014.02
2019-05-22T10:20:06.773Z,1014.09
2019-05-22T10:21:06.836Z,1014.02
2019-05-22T10:22:06.716Z,1014.08
2019-05-22T10:23:15.601Z,1014.14
2019-05-22T10:24:07.692Z,1014.12
2019-05-22T10:25:15.704Z,1014.16
2019-05-22T10:26:07.670Z,1014.19
2019-05-22T10:27:06.771Z,1014.16
2019-05-22T10:28:06.686Z,1014.17
2019-05-22T10:29:06.683Z,1014.17
2019-05-22T10:30:06.643Z,1014.20
2019-05-22T10:31:07.791Z,1014.22
2019-05-22T10:32:06.623Z,1014.19
2019-05-22T10:33:06.614Z,1014.19
2019-05-22T10:34:06.584Z,1014.24
2019-05-22T10:35:06.662Z,1014.20
2019-05-22T10:36:06.641Z,1014.20
2019-05-22T10:37:06.636Z,1014.22
2019-05-22T10:38:06.555Z,1014.22
2019-05-22T10:39:06.549Z,1014.23
2019-05-22T10:40:06.517Z,1014.20
2019-05-22T10:41:06.595Z,1014.25
2019-05-22T10:42:06.499Z,1014.22
2019-05-22T10:43:06.583Z,1014.25
2019-05-22T10:44:06.477Z,1014.24
2019-05-22T10:45:06.502Z,1014.36
2019-05-22T10:46:06.471Z,1014.27
2019-05-22T10:47:06.501Z,1014.30
2019-05-22T10:48:06.434Z,1014.28
2019-05-22T10:49:06.515Z,1014.28
2019-05-22T10:50:06.406Z,1014.27
2019-05-22T10:51:11.896Z,1014.27
2019-05-22T10:52:06.387Z,1014.24
2019-05-22T10:53:08.486Z,1014.28
2019-05-22T10:54:06.361Z,1014.30
2019-05-22T10:55:07.378Z,1014.35
2019-05-22T10:56:06.367Z,1014.28
2019-05-22T10:57:06.366Z,1014.29
2019-05-22T10:58:06.409Z,1014.31
2019-05-22T10:59:22.866Z,1014.30
2019-05-22T11:00:06.300Z,1014.33
2019-05-22T11:01:06.326Z,1014.28
2019-05-22T11:02:06.275Z,1014.23
2019-05-22T11:03:06.309Z,1014.33
2019-05-22T11:04:06.257Z,1014.36
2019-05-22T11:05:06.321Z,1014.35
2019-05-22T11:06:07.961Z,1014.30
2019-05-22T11:07:06.339Z,1014.30
2019-05-22T11:08:06.218Z,1014.34
2019-05-22T11:09:06.251Z,1014.35
2019-05-22T11:10:06.196Z,1014.34
2019-05-22T11:11:06.286Z,1014.30
2019-05-22T11:12:06.173Z,1014.45
2019-05-22T11:13:06.323Z,1014.44
2019-05-22T11:14:09.535Z,1014.45
2019-05-22T11:15:06.189Z,1014.37
2019-05-22T11:16:06.170Z,1014.48
2019-05-22T11:17:06.197Z,1014.48
2019-05-22T11:18:06.102Z,1014.44
2019-05-22T11:19:06.103Z,1014.51
2019-05-22T11:20:06.080Z,1014.51
2019-05-22T11:21:06.154Z,1014.52
2019-05-22T11:22:06.060Z,1014.64
2019-05-22T11:23:06.132Z,1014.46
2019-05-22T11:24:06.033Z,1014.49
2019-05-22T11:25:06.042Z,1014.45
2019-05-22T11:26:06.030Z,1014.48
2019-05-22T11:27:06.059Z,1014.44
2019-05-22T11:28:06.000Z,1014.44
2019-05-22T11:29:06.070Z,1014.48
2019-05-22T11:30:05.969Z,1014.42
2019-05-22T11:31:06.021Z,1014.70
2019-05-22T11:32:05.946Z,1014.79
2019-05-22T11:33:06.007Z,1014.46
2019-05-22T11:34:05.932Z,1014.46
2019-05-22T11:35:06.016Z,1014.44
2019-05-22T11:36:05.921Z,1014.47
2019-05-22T11:37:06.948Z,1014.51
2019-05-22T11:38:05.881Z,1014.45
2019-05-22T11:39:14.945Z,1014.49
2019-05-22T11:40:05.926Z,1014.50
2019-05-22T11:41:05.875Z,1014.47
2019-05-22T11:42:05.846Z,1014.47
2019-05-22T11:43:05.860Z,1014.71
2019-05-22T11:44:05.816Z,1014.41
2019-05-22T11:45:05.873Z,1014.41
2019-05-22T11:46:05.827Z,1014.44
2019-05-22T11:47:06.808Z,1014.54
2019-05-22T11:48:05.774Z,1014.36
2019-05-22T11:49:05.798Z,1014.38
2019-05-22T11:50:05.760Z,1014.33
2019-05-22T11:51:05.845Z,1014.35
2019-05-22T11:52:05.735Z,1014.46
2019-05-22T11:53:05.830Z,1014.32
2019-05-22T11:54:09.181Z,1014.40
2019-05-22T11:55:05.736Z,1014.37
2019-05-22T11:56:05.711Z,1014.39
2019-05-22T11:57:05.750Z,1014.39
2019-05-22T11:58:05.674Z,1014.43
2019-05-22T11:59:05.765Z,1014.67
2019-05-22T12:00:09.041Z,1014.39
2019-05-22T12:01:05.716Z,1014.37
2019-05-22T12:02:05.620Z,1014.32
2019-05-22T12:03:05.701Z,1014.42
2019-05-22T12:04:05.598Z,1014.42
2019-05-22T12:05:05.601Z,1014.45